Time;durP1;ratioP1;P1;durP2;ratioP2;P2;SDS_P1;SDS_P2;PMS_P1;PMS_P2;Temp;Humidity;BMP_temperature;BMP_pressure;BME280_temperature;BME280_humidity;BME280_pressure;Samples;Min_cycle;Max_cycle;Signal;HPM_P1;HPM_P2
2022/04/07 00:00:22;;;;;;;;;;;12.30;89.00;;;;;;5078099;28;20296;-73
2022/04/07 00:02:48;;;;;;;;;;;12.40;89.40;;;;;;5059522;28;20002;-73
2022/04/07 00:05:13;;;;;;;;;;;12.30;89.20;;;;;;5077753;28;19908;-73
2022/04/07 00:07:39;;;;;;;;;;;12.30;89.90;;;;;;5077997;28;19908;-72
2022/04/07 00:10:05;;;;;;;;;;;12.30;89.80;;;;;;5077769;28;19909;-72
2022/04/07 00:12:33;;;;;;;;;;;12.30;89.70;;;;;;5077823;28;19908;-72
2022/04/07 00:15:00;;;;;;;;;;;12.30;90.20;;;;;;5059678;28;19908;-72
2022/04/07 00:17:27;;;;;;;;;;;12.30;90.60;;;;;;5077904;28;19948;-73
2022/04/07 00:19:52;;;;;;;;;;;12.30;90.50;;;;;;5077434;28;19908;-73
2022/04/07 00:22:18;;;;;;;;;;;12.20;91.00;;;;;;5077707;28;20038;-73
2022/04/07 00:24:43;;;;;;;;;;;12.20;90.90;;;;;;5077611;28;20065;-73
2022/04/07 00:27:09;;;;;;;;;;;12.20;91.10;;;;;;5079865;28;19932;-72
2022/04/07 00:29:35;;;;;;;;;;;12.20;91.40;;;;;;5081838;28;19908;-73
2022/04/07 00:32:04;;;;;;;;;;;12.20;91.80;;;;;;5081485;28;20385;-73
2022/04/07 00:34:29;;;;;;;;;;;12.10;91.30;;;;;;5081270;28;19916;-73
2022/04/07 00:36:55;;;;;;;;;;;12.10;91.50;;;;;;5081527;28;19908;-73
2022/04/07 00:39:21;;;;;;;;;;;12.10;91.50;;;;;;5081383;28;19914;-73
2022/04/07 00:41:46;;;;;;;;;;;12.00;91.40;;;;;;5081421;28;20371;-74
2022/04/07 00:44:12;;;;;;;;;;;12.00;91.40;;;;;;5081404;28;19959;-74
2022/04/07 00:46:38;;;;;;;;;;;12.00;91.30;;;;;;5081868;28;20414;-73
2022/04/07 00:49:04;;;;;;;;;;;12.00;91.20;;;;;;5081121;28;19924;-73
2022/04/07 00:51:30;;;;;;;;;;;12.10;91.60;;;;;;5081203;28;19920;-73
2022/04/07 00:53:57;;;;;;;;;;;12.00;91.60;;;;;;5081187;28;19908;-73
2022/04/07 00:56:23;;;;;;;;;;;12.00;91.50;;;;;;5063315;28;19909;-74
2022/04/07 00:58:49;;;;;;;;;;;12.00;92.00;;;;;;5081311;28;19940;-73
2022/04/07 01:01:22;;;;;;;;;;;12.10;92.30;;;;;;5081142;28;19916;-73
2022/04/07 01:03:51;;;;;;;;;;;12.00;92.70;;;;;;5062720;28;20016;-73
2022/04/07 01:06:18;;;;;;;;;;;12.10;93.20;;;;;;5081378;28;20360;-73
2022/04/07 01:08:44;;;;;;;;;;;12.10;93.30;;;;;;5080936;28;19916;-73
2022/04/07 01:11:09;;;;;;;;;;;12.10;93.60;;;;;;5080988;28;19908;-73
2022/04/07 01:13:45;;;;;;;;;;;12.00;93.30;;;;;;5080845;28;19909;-72
2022/04/07 01:16:10;;;;;;;;;;;12.00;93.50;;;;;;5080909;28;19916;-73
2022/04/07 01:18:36;;;;;;;;;;;12.00;93.50;;;;;;5080614;28;19908;-73
2022/04/07 01:21:02;;;;;;;;;;;12.00;93.30;;;;;;5080829;28;19908;-72
2022/04/07 01:23:29;;;;;;;;;;;12.00;93.40;;;;;;5080617;28;19916;-73
2022/04/07 01:25:55;;;;;;;;;;;12.00;93.40;;;;;;5080593;28;19915;-74
2022/04/07 01:28:21;;;;;;;;;;;12.00;93.10;;;;;;5062208;28;19979;-74
2022/04/07 01:30:46;;;;;;;;;;;12.00;93.10;;;;;;5080601;28;19909;-74
2022/04/07 01:33:12;;;;;;;;;;;12.00;93.20;;;;;;5079986;28;19916;-74
2022/04/07 01:35:38;;;;;;;;;;;12.00;93.20;;;;;;5080547;28;19913;-74
2022/04/07 01:38:04;;;;;;;;;;;12.00;93.00;;;;;;5078971;28;19908;-73
2022/04/07 01:40:31;;;;;;;;;;;12.00;93.20;;;;;;5080332;28;19909;-74
2022/04/07 01:42:57;;;;;;;;;;;12.00;93.10;;;;;;5080161;28;20412;-73
2022/04/07 01:45:23;;;;;;;;;;;12.00;93.20;;;;;;5080330;28;19951;-74
2022/04/07 01:47:49;;;;;;;;;;;12.00;93.60;;;;;;5079958;28;19916;-74
2022/04/07 01:50:15;;;;;;;;;;;12.00;93.80;;;;;;5080314;28;19916;-73
2022/04/07 01:52:41;;;;;;;;;;;11.90;93.70;;;;;;5080101;28;19913;-74
2022/04/07 01:55:07;;;;;;;;;;;11.90;94.00;;;;;;5062051;28;19909;-74
2022/04/07 01:57:33;;;;;;;;;;;11.90;94.10;;;;;;5079969;28;20425;-74
2022/04/07 01:59:59;;;;;;;;;;;11.90;94.00;;;;;;5079810;28;19940;-73
2022/04/07 02:02:25;;;;;;;;;;;11.90;93.60;;;;;;5079714;28;19931;-73
2022/04/07 02:05:03;;;;;;;;;;;11.90;94.00;;;;;;5060485;28;19909;-74
2022/04/07 02:07:32;;;;;;;;;;;12.00;94.00;;;;;;5079721;28;19931;-74
2022/04/07 02:09:58;;;;;;;;;;;11.90;93.90;;;;;;5080003;28;19912;-74
2022/04/07 02:12:27;;;;;;;;;;;11.90;94.00;;;;;;5079775;28;20549;-73
2022/04/07 02:14:53;;;;;;;;;;;12.00;93.90;;;;;;5079982;28;19909;-74
2022/04/07 02:17:20;;;;;;;;;;;12.00;93.90;;;;;;5079722;28;19909;-73
2022/04/07 02:19:50;;;;;;;;;;;11.90;93.70;;;;;;5079461;28;19915;-72
2022/04/07 02:22:15;;;;;;;;;;;11.90;93.50;;;;;;5079580;28;19908;-72
2022/04/07 02:24:41;;;;;;;;;;;11.90;93.60;;;;;;5061420;28;19915;-73
2022/04/07 02:27:08;;;;;;;;;;;11.90;93.50;;;;;;5079211;28;19959;-73
2022/04/07 02:29:34;;;;;;;;;;;11.90;93.60;;;;;;5079635;28;19931;-72
2022/04/07 02:31:59;;;;;;;;;;;11.80;93.30;;;;;;5061186;28;19923;-72
2022/04/07 02:34:25;;;;;;;;;;;11.80;93.30;;;;;;5079122;28;19909;-72
2022/04/07 02:36:50;;;;;;;;;;;11.70;93.20;;;;;;5079314;28;19916;-73
2022/04/07 02:39:16;;;;;;;;;;;11.70;93.30;;;;;;5061049;28;19916;-73
2022/04/07 02:41:42;;;;;;;;;;;11.70;93.20;;;;;;5079168;28;19915;-73
2022/04/07 02:44:07;;;;;;;;;;;11.60;93.10;;;;;;5079119;28;20398;-72
2022/04/07 02:46:33;;;;;;;;;;;11.70;93.30;;;;;;5079035;28;19908;-73
2022/04/07 02:48:59;;;;;;;;;;;11.70;93.30;;;;;;5078427;28;19927;-72
2022/04/07 02:51:24;;;;;;;;;;;11.70;93.30;;;;;;5078929;28;19962;-72
2022/04/07 02:53:57;;;;;;;;;;;11.60;93.20;;;;;;5079180;28;19915;-73
2022/04/07 02:56:22;;;;;;;;;;;11.70;93.20;;;;;;5079050;28;19970;-74
2022/04/07 02:58:48;;;;;;;;;;;11.70;93.30;;;;;;5079105;28;19913;-74
2022/04/07 03:01:14;;;;;;;;;;;11.70;93.20;;;;;;5078687;28;19908;-75
2022/04/07 03:03:40;;;;;;;;;;;11.80;93.50;;;;;;5078509;28;19913;-72
2022/04/07 03:06:05;;;;;;;;;;;11.80;93.40;;;;;;5078660;28;19930;-73
2022/04/07 03:08:33;;;;;;;;;;;11.80;93.30;;;;;;5078943;28;20007;-73
2022/04/07 03:11:00;;;;;;;;;;;11.80;93.10;;;;;;5078610;28;19909;-74
2022/04/07 03:13:26;;;;;;;;;;;11.80;93.10;;;;;;5078829;28;19912;-74
2022/04/07 03:15:51;;;;;;;;;;;11.80;93.10;;;;;;5078562;28;20344;-72
2022/04/07 03:18:17;;;;;;;;;;;11.80;93.10;;;;;;5078480;28;19919;-73
2022/04/07 03:20:43;;;;;;;;;;;11.80;93.00;;;;;;5078737;28;19915;-74
2022/04/07 03:23:08;;;;;;;;;;;11.90;93.20;;;;;;5078473;28;19913;-74
2022/04/07 03:25:34;;;;;;;;;;;11.90;93.40;;;;;;5078324;28;19924;-74
2022/04/07 03:27:59;;;;;;;;;;;11.90;93.70;;;;;;5060008;28;19941;-74
2022/04/07 03:30:25;;;;;;;;;;;11.90;93.70;;;;;;5078101;28;20383;-74
2022/04/07 03:32:51;;;;;;;;;;;12.00;94.00;;;;;;5078056;28;19908;-73
2022/04/07 03:35:16;;;;;;;;;;;11.90;94.00;;;;;;5078024;28;19908;-74
2022/04/07 03:37:42;;;;;;;;;;;11.90;94.20;;;;;;5078386;28;19909;-75
2022/04/07 03:40:08;;;;;;;;;;;12.00;94.20;;;;;;5077721;28;19966;-74
2022/04/07 03:42:34;;;;;;;;;;;12.00;94.20;;;;;;5078411;28;19908;-75
2022/04/07 03:44:59;;;;;;;;;;;12.00;94.40;;;;;;5077985;28;19975;-74
2022/04/07 03:47:25;;;;;;;;;;;12.00;94.70;;;;;;5060109;28;19916;-74
2022/04/07 03:49:51;;;;;;;;;;;12.00;94.80;;;;;;5077604;28;19920;-74
2022/04/07 03:52:16;;;;;;;;;;;12.00;94.60;;;;;;5078175;28;19914;-75
2022/04/07 03:54:42;;;;;;;;;;;12.00;94.50;;;;;;5077734;28;19908;-74
2022/04/07 03:57:08;;;;;;;;;;;12.00;94.50;;;;;;5078143;28;19913;-74
2022/04/07 03:59:38;;;;;;;;;;;12.00;94.90;;;;;;5077711;28;20033;-74
2022/04/07 04:02:06;;;;;;;;;;;12.00;94.80;;;;;;5076988;28;19919;-74
2022/04/07 04:04:32;;;;;;;;;;;12.10;94.70;;;;;;5064525;28;19912;-75
2022/04/07 04:06:58;;;;;;;;;;;12.10;94.60;;;;;;5077924;28;20403;-74
2022/04/07 04:09:23;;;;;;;;;;;12.10;94.70;;;;;;5077916;28;19908;-75
2022/04/07 04:11:49;;;;;;;;;;;12.20;94.80;;;;;;5059950;28;19908;-74
2022/04/07 04:14:15;;;;;;;;;;;12.20;94.90;;;;;;5077802;28;19909;-75
2022/04/07 04:16:42;;;;;;;;;;;12.20;94.90;;;;;;5077744;28;19909;-75
2022/04/07 04:19:07;;;;;;;;;;;12.20;94.90;;;;;;5077643;28;20048;-75
2022/04/07 04:21:33;;;;;;;;;;;12.30;94.80;;;;;;5078002;28;19947;-73
2022/04/07 04:23:58;;;;;;;;;;;12.30;94.80;;;;;;5077566;28;19912;-75
2022/04/07 04:26:24;;;;;;;;;;;12.30;94.80;;;;;;5076035;28;20276;-75
2022/04/07 04:28:50;;;;;;;;;;;12.40;94.80;;;;;;5059213;28;19916;-75
2022/04/07 04:31:15;;;;;;;;;;;12.40;94.90;;;;;;5077819;28;19909;-74
2022/04/07 04:33:41;;;;;;;;;;;12.40;95.10;;;;;;5076951;28;19908;-75
2022/04/07 04:36:07;;;;;;;;;;;12.40;95.10;;;;;;5077566;28;19908;-76
2022/04/07 04:38:33;;;;;;;;;;;12.40;95.20;;;;;;5059332;28;19909;-83
2022/04/07 04:40:59;;;;;;;;;;;12.50;95.40;;;;;;5059442;28;20046;-76
2022/04/07 04:43:24;;;;;;;;;;;12.50;95.50;;;;;;5059244;28;19935;-73
2022/04/07 04:45:50;;;;;;;;;;;12.50;95.60;;;;;;5077525;28;19908;-72
2022/04/07 04:48:15;;;;;;;;;;;12.50;95.60;;;;;;5076882;28;19928;-73
2022/04/07 04:50:41;;;;;;;;;;;12.50;95.70;;;;;;5077644;28;20286;-74
2022/04/07 04:53:07;;;;;;;;;;;12.50;95.70;;;;;;5077220;28;19915;-73
2022/04/07 04:55:32;;;;;;;;;;;12.50;95.30;;;;;;5077421;28;19916;-70
2022/04/07 04:57:58;;;;;;;;;;;12.50;95.50;;;;;;5077467;28;19912;-72
2022/04/07 05:00:26;;;;;;;;;;;12.60;95.30;;;;;;5076873;28;20221;-71
2022/04/07 05:02:52;;;;;;;;;;;12.60;95.20;;;;;;5076926;28;19974;-74
2022/04/07 05:05:18;;;;;;;;;;;12.60;95.00;;;;;;5077359;28;19908;-72
2022/04/07 05:07:43;;;;;;;;;;;12.60;94.80;;;;;;5077071;28;20337;-72
2022/04/07 05:10:09;;;;;;;;;;;12.60;94.70;;;;;;5077256;28;19908;-71
2022/04/07 05:12:35;;;;;;;;;;;12.70;95.00;;;;;;5078500;28;19908;-71
2022/04/07 05:15:01;;;;;;;;;;;12.70;95.00;;;;;;5081130;28;19909;-71
2022/04/07 05:17:26;;;;;;;;;;;12.80;95.10;;;;;;5080692;28;19908;-70
2022/04/07 05:19:52;;;;;;;;;;;12.80;95.30;;;;;;5074472;28;19915;-73
2022/04/07 05:22:18;;;;;;;;;;;12.80;95.20;;;;;;5080546;28;20011;-71
2022/04/07 05:24:44;;;;;;;;;;;12.80;95.00;;;;;;5080833;28;20003;-71
2022/04/07 05:27:09;;;;;;;;;;;12.80;95.00;;;;;;5077207;28;19963;-70
2022/04/07 05:29:35;;;;;;;;;;;12.80;94.80;;;;;;5080829;28;19954;-70
2022/04/07 05:32:01;;;;;;;;;;;12.90;95.10;;;;;;5080380;28;19955;-70
2022/04/07 05:34:26;;;;;;;;;;;12.90;95.30;;;;;;5080237;28;20256;-71
2022/04/07 05:36:52;;;;;;;;;;;12.90;95.20;;;;;;5080399;28;19909;-70
2022/04/07 05:39:17;;;;;;;;;;;12.90;95.20;;;;;;5080283;28;19912;-70
2022/04/07 05:41:43;;;;;;;;;;;13.00;95.20;;;;;;5062307;28;19916;-70
2022/04/07 05:44:09;;;;;;;;;;;13.00;94.90;;;;;;5080307;28;19912;-71
2022/04/07 05:46:34;;;;;;;;;;;13.00;95.00;;;;;;5080213;28;19915;-71
2022/04/07 05:49:00;;;;;;;;;;;13.10;94.90;;;;;;5080033;28;19966;-71
2022/04/07 05:51:26;;;;;;;;;;;13.10;94.90;;;;;;5080096;28;19967;-71
2022/04/07 05:53:51;;;;;;;;;;;13.10;94.70;;;;;;5080142;28;19991;-71
2022/04/07 05:56:17;;;;;;;;;;;13.10;95.20;;;;;;5080033;28;19909;-70
2022/04/07 05:58:42;;;;;;;;;;;13.20;95.90;;;;;;5080322;28;19913;-71
2022/04/07 06:01:08;;;;;;;;;;;13.10;96.10;;;;;;5079715;28;19919;-71
2022/04/07 06:03:34;;;;;;;;;;;13.10;96.20;;;;;;5078890;28;19913;-69
2022/04/07 06:05:59;;;;;;;;;;;13.00;96.30;;;;;;5079074;28;19909;-70
2022/04/07 06:08:25;;;;;;;;;;;13.00;96.40;;;;;;5079284;28;19909;-70
2022/04/07 06:10:51;;;;;;;;;;;13.10;96.60;;;;;;5079873;28;19915;-70
2022/04/07 06:13:16;;;;;;;;;;;13.00;96.60;;;;;;5061874;28;20007;-70
2022/04/07 06:15:42;;;;;;;;;;;13.00;96.40;;;;;;5079676;28;19952;-70
2022/04/07 06:18:08;;;;;;;;;;;13.00;96.30;;;;;;5079661;28;19912;-70
2022/04/07 06:20:34;;;;;;;;;;;13.10;96.20;;;;;;5079603;28;19908;-70
2022/04/07 06:23:02;;;;;;;;;;;13.10;95.90;;;;;;5079835;28;19912;-70
2022/04/07 06:25:28;;;;;;;;;;;13.10;95.80;;;;;;5060573;28;19954;-70
2022/04/07 06:27:53;;;;;;;;;;;13.10;95.40;;;;;;5079198;28;19913;-70
2022/04/07 06:30:20;;;;;;;;;;;13.10;95.20;;;;;;5079377;28;19908;-70
2022/04/07 06:32:46;;;;;;;;;;;13.20;94.90;;;;;;5079394;28;19919;-70
2022/04/07 06:35:13;;;;;;;;;;;13.20;94.70;;;;;;5079177;28;19909;-71
2022/04/07 06:37:46;;;;;;;;;;;13.20;94.40;;;;;;5079499;28;19954;-70
2022/04/07 06:40:12;;;;;;;;;;;13.20;94.50;;;;;;5078952;28;19920;-70
2022/04/07 06:42:37;;;;;;;;;;;13.30;94.30;;;;;;5079360;28;20279;-70
2022/04/07 06:45:04;;;;;;;;;;;13.30;94.00;;;;;;5079081;28;20390;-71
2022/04/07 06:47:35;;;;;;;;;;;13.30;93.60;;;;;;5079076;28;19923;-71
2022/04/07 06:50:01;;;;;;;;;;;13.40;93.40;;;;;;5065877;28;19921;-70
2022/04/07 06:52:27;;;;;;;;;;;13.40;92.90;;;;;;5078977;28;19919;-70
2022/04/07 06:54:52;;;;;;;;;;;13.50;92.70;;;;;;5079106;28;20264;-70
2022/04/07 06:57:18;;;;;;;;;;;13.50;92.20;;;;;;5078923;28;19912;-71
2022/04/07 06:59:43;;;;;;;;;;;13.60;92.10;;;;;;5079144;28;20349;-70
2022/04/07 07:02:09;;;;;;;;;;;13.60;92.00;;;;;;5060762;28;19908;-71
2022/04/07 07:04:35;;;;;;;;;;;13.70;91.90;;;;;;5078713;28;19912;-70
2022/04/07 07:07:00;;;;;;;;;;;13.70;91.50;;;;;;5078810;28;19915;-71
2022/04/07 07:09:26;;;;;;;;;;;13.70;91.40;;;;;;5060718;28;19908;-71
2022/04/07 07:11:52;;;;;;;;;;;13.70;91.40;;;;;;5078645;28;19909;-71
2022/04/07 07:14:17;;;;;;;;;;;13.70;91.60;;;;;;5078833;28;19908;-70
2022/04/07 07:16:43;;;;;;;;;;;13.80;91.70;;;;;;5078474;28;19930;-70
2022/04/07 07:19:10;;;;;;;;;;;13.70;91.70;;;;;;5078593;28;20268;-70
2022/04/07 07:21:36;;;;;;;;;;;13.80;91.90;;;;;;5078453;28;19908;-71
2022/04/07 07:24:02;;;;;;;;;;;13.80;91.90;;;;;;5078477;28;19913;-70
2022/04/07 07:26:27;;;;;;;;;;;13.70;91.90;;;;;;5060328;28;19909;-71
2022/04/07 07:28:53;;;;;;;;;;;13.70;91.90;;;;;;5060095;28;19915;-71
2022/04/07 07:31:19;;;;;;;;;;;13.80;91.80;;;;;;5078350;28;19909;-70
2022/04/07 07:33:44;;;;;;;;;;;13.70;91.90;;;;;;5077692;28;19915;-70
2022/04/07 07:36:10;;;;;;;;;;;13.80;91.80;;;;;;5078434;28;20371;-70
2022/04/07 07:38:35;;;;;;;;;;;13.80;92.00;;;;;;5078270;28;19909;-71
2022/04/07 07:41:01;;;;;;;;;;;13.80;91.90;;;;;;5077937;28;19972;-71
2022/04/07 07:43:27;;;;;;;;;;;13.80;92.20;;;;;;5077999;28;19965;-70
2022/04/07 07:45:52;;;;;;;;;;;13.80;92.30;;;;;;5078169;28;19957;-71
2022/04/07 07:48:22;;;;;;;;;;;13.80;92.00;;;;;;5077584;28;19924;-70
2022/04/07 07:50:48;;;;;;;;;;;13.80;92.00;;;;;;5077990;28;20421;-71
2022/04/07 07:53:16;;;;;;;;;;;13.90;92.00;;;;;;5078227;28;19908;-71
2022/04/07 07:55:41;;;;;;;;;;;14.00;92.00;;;;;;5077855;28;19958;-71
2022/04/07 07:58:07;;;;;;;;;;;14.10;91.70;;;;;;5078184;28;19908;-70
2022/04/07 08:00:32;;;;;;;;;;;14.20;91.40;;;;;;5078061;28;19958;-70
2022/04/07 08:02:58;;;;;;;;;;;14.40;91.30;;;;;;5077654;28;19916;-70
2022/04/07 08:05:24;;;;;;;;;;;14.50;91.50;;;;;;5077877;28;19915;-71
2022/04/07 08:07:49;;;;;;;;;;;14.50;91.50;;;;;;5078026;28;19991;-71
2022/04/07 08:10:15;;;;;;;;;;;14.50;91.50;;;;;;5077767;28;19916;-71
2022/04/07 08:12:41;;;;;;;;;;;14.60;91.30;;;;;;5077962;28;19931;-70
2022/04/07 08:15:07;;;;;;;;;;;14.60;91.60;;;;;;5077806;28;19908;-70
2022/04/07 08:17:32;;;;;;;;;;;14.60;91.80;;;;;;5077742;28;19916;-71
2022/04/07 08:19:58;;;;;;;;;;;14.50;92.10;;;;;;5077804;28;19913;-70
2022/04/07 08:22:24;;;;;;;;;;;14.40;92.10;;;;;;5077817;28;20011;-71
2022/04/07 08:24:50;;;;;;;;;;;14.40;92.40;;;;;;5077518;28;20417;-71
2022/04/07 08:27:15;;;;;;;;;;;14.30;92.50;;;;;;5077429;28;19909;-70
2022/04/07 08:29:41;;;;;;;;;;;14.20;92.80;;;;;;5077691;28;19960;-70
2022/04/07 08:32:07;;;;;;;;;;;14.30;92.80;;;;;;5077385;28;19940;-70
2022/04/07 08:34:32;;;;;;;;;;;14.20;92.70;;;;;;5077135;28;20426;-70
2022/04/07 08:36:58;;;;;;;;;;;14.20;92.70;;;;;;5077771;28;19912;-70
2022/04/07 08:39:23;;;;;;;;;;;14.30;92.70;;;;;;5077486;28;19948;-71
2022/04/07 08:41:50;;;;;;;;;;;14.40;92.50;;;;;;5077408;28;19995;-70
2022/04/07 08:44:16;;;;;;;;;;;14.30;92.60;;;;;;5077438;28;20372;-70
2022/04/07 08:46:45;;;;;;;;;;;14.40;92.70;;;;;;5077437;28;19939;-70
2022/04/07 08:49:13;;;;;;;;;;;14.40;93.10;;;;;;5081107;28;19920;-70
2022/04/07 08:51:39;;;;;;;;;;;14.30;93.10;;;;;;5081521;28;19908;-70
2022/04/07 08:54:04;;;;;;;;;;;14.20;93.60;;;;;;5081241;28;19908;-70
2022/04/07 08:56:30;;;;;;;;;;;14.20;93.70;;;;;;5063460;28;19916;-70
2022/04/07 08:58:56;;;;;;;;;;;14.10;93.30;;;;;;5081343;28;20429;-70
2022/04/07 09:01:21;;;;;;;;;;;14.10;93.80;;;;;;5081371;28;20387;-70
2022/04/07 09:03:47;;;;;;;;;;;14.00;94.10;;;;;;5080755;28;19958;-70
2022/04/07 09:06:14;;;;;;;;;;;14.00;94.40;;;;;;5081228;28;19909;-70
2022/04/07 09:08:40;;;;;;;;;;;14.10;94.90;;;;;;5081111;28;19954;-70
2022/04/07 09:11:06;;;;;;;;;;;14.20;94.70;;;;;;5081003;28;19939;-69
2022/04/07 09:13:34;;;;;;;;;;;14.50;94.90;;;;;;5062877;28;19909;-70
2022/04/07 09:16:04;;;;;;;;;;;14.70;94.60;;;;;;5081270;28;19908;-71
2022/04/07 09:18:33;;;;;;;;;;;15.00;93.80;;;;;;5062726;28;19915;-69
2022/04/07 09:20:58;;;;;;;;;;;15.40;93.20;;;;;;5081028;28;20333;-70
2022/04/07 09:23:24;;;;;;;;;;;15.70;92.30;;;;;;5080715;28;19923;-70
2022/04/07 09:25:49;;;;;;;;;;;15.90;91.90;;;;;;5080695;28;20367;-71
2022/04/07 09:28:25;;;;;;;;;;;16.10;91.20;;;;;;5080243;28;19915;-71
2022/04/07 09:30:50;;;;;;;;;;;16.30;90.50;;;;;;5080690;28;19909;-71
2022/04/07 09:33:19;;;;;;;;;;;16.50;89.20;;;;;;5080165;28;19908;-70
2022/04/07 09:36:00;;;;;;;;;;;16.50;88.00;;;;;;5080640;28;19908;-70
2022/04/07 09:38:27;;;;;;;;;;;16.40;87.10;;;;;;5080636;28;19909;-71
2022/04/07 09:40:53;;;;;;;;;;;16.30;85.00;;;;;;5080258;28;19909;-70
2022/04/07 09:43:20;;;;;;;;;;;16.20;85.10;;;;;;5080249;28;19917;-71
2022/04/07 09:45:46;;;;;;;;;;;16.10;86.00;;;;;;5062416;28;19991;-70
2022/04/07 09:48:18;;;;;;;;;;;16.10;84.40;;;;;;5079835;28;19948;-71
2022/04/07 09:51:00;;;;;;;;;;;16.20;85.40;;;;;;5080376;28;20005;-71
2022/04/07 09:53:28;;;;;;;;;;;16.20;85.50;;;;;;5080481;28;19908;-71
2022/04/07 09:55:54;;;;;;;;;;;16.30;85.60;;;;;;5080011;28;19957;-71
2022/04/07 09:58:20;;;;;;;;;;;16.50;85.50;;;;;;5079635;28;19908;-71
2022/04/07 10:00:46;;;;;;;;;;;16.70;85.10;;;;;;5079515;28;19915;-71
2022/04/07 10:03:13;;;;;;;;;;;16.80;83.30;;;;;;5079900;28;19962;-70
2022/04/07 10:05:39;;;;;;;;;;;16.80;82.90;;;;;;5080091;28;19921;-71
2022/04/07 10:08:06;;;;;;;;;;;16.70;81.60;;;;;;5080188;28;20454;-71
2022/04/07 10:10:31;;;;;;;;;;;16.60;81.50;;;;;;5079831;28;20456;-71
2022/04/07 10:12:59;;;;;;;;;;;16.60;81.30;;;;;;5079593;28;19908;-71
2022/04/07 10:15:25;;;;;;;;;;;16.50;80.10;;;;;;5079157;28;20275;-71
2022/04/07 10:17:50;;;;;;;;;;;16.50;80.60;;;;;;5079012;28;19908;-70
2022/04/07 10:20:20;;;;;;;;;;;16.70;80.50;;;;;;5076095;28;19908;-71
2022/04/07 10:22:58;;;;;;;;;;;16.80;81.40;;;;;;5078919;28;20004;-71
2022/04/07 10:25:24;;;;;;;;;;;16.80;79.80;;;;;;5078713;28;19909;-71
2022/04/07 10:27:51;;;;;;;;;;;16.80;80.00;;;;;;5078641;28;20283;-71
2022/04/07 10:30:17;;;;;;;;;;;16.80;79.40;;;;;;5079432;28;19991;-71
2022/04/07 10:32:45;;;;;;;;;;;16.60;77.50;;;;;;5079466;28;19946;-71
2022/04/07 10:35:28;;;;;;;;;;;16.30;77.70;;;;;;5077474;28;19908;-70
2022/04/07 10:37:54;;;;;;;;;;;16.20;78.60;;;;;;5078269;28;20334;-71
2022/04/07 10:40:35;;;;;;;;;;;16.10;79.30;;;;;;5077622;28;19965;-71
2022/04/07 10:43:03;;;;;;;;;;;16.20;79.80;;;;;;5078992;28;19912;-71
2022/04/07 10:45:33;;;;;;;;;;;16.40;79.00;;;;;;5079334;28;19908;-71
2022/04/07 10:48:18;;;;;;;;;;;16.50;77.70;;;;;;5078772;28;19923;-71
2022/04/07 10:50:50;;;;;;;;;;;16.60;77.50;;;;;;5079275;28;19916;-71
2022/04/07 10:53:17;;;;;;;;;;;16.70;77.20;;;;;;5066574;28;20385;-71
2022/04/07 10:55:52;;;;;;;;;;;16.60;75.30;;;;;;5078779;28;19948;-71
2022/04/07 10:58:19;;;;;;;;;;;16.50;74.70;;;;;;5079196;28;19940;-71
2022/04/07 11:00:44;;;;;;;;;;;16.40;76.10;;;;;;5078840;28;20360;-71
2022/04/07 11:03:14;;;;;;;;;;;16.20;76.70;;;;;;5078582;28;19978;-71
2022/04/07 11:05:58;;;;;;;;;;;16.20;77.90;;;;;;5078739;28;19908;-72
2022/04/07 11:08:24;;;;;;;;;;;16.20;78.40;;;;;;5078985;28;19909;-71
2022/04/07 11:10:52;;;;;;;;;;;16.20;78.10;;;;;;5078189;28;19916;-71
2022/04/07 11:13:38;;;;;;;;;;;16.20;77.30;;;;;;5078832;28;19920;-71
2022/04/07 11:16:10;;;;;;;;;;;16.20;78.20;;;;;;5067779;28;19912;-71
2022/04/07 11:18:47;;;;;;;;;;;16.20;78.20;;;;;;5078275;28;19908;-71
2022/04/07 11:21:13;;;;;;;;;;;16.30;78.40;;;;;;5078502;28;19915;-71
2022/04/07 11:23:39;;;;;;;;;;;16.50;76.60;;;;;;5078351;28;19913;-72
2022/04/07 11:26:12;;;;;;;;;;;16.60;76.10;;;;;;5078596;28;19909;-71
2022/04/07 11:28:38;;;;;;;;;;;16.80;77.00;;;;;;5077702;28;19978;-72
2022/04/07 11:31:04;;;;;;;;;;;17.10;76.20;;;;;;5078419;28;19912;-72
2022/04/07 11:33:38;;;;;;;;;;;17.30;76.00;;;;;;5077695;28;19915;-71
2022/04/07 11:36:04;;;;;;;;;;;17.70;73.40;;;;;;5078420;28;19912;-72
2022/04/07 11:38:33;;;;;;;;;;;18.30;75.30;;;;;;5078143;28;19939;-72
2022/04/07 11:41:03;;;;;;;;;;;18.90;72.60;;;;;;5077939;28;19908;-72
2022/04/07 11:43:29;;;;;;;;;;;19.20;68.90;;;;;;5065236;28;20007;-72
2022/04/07 11:45:55;;;;;;;;;;;19.20;68.40;;;;;;5078159;28;19908;-71
2022/04/07 11:48:22;;;;;;;;;;;19.10;67.10;;;;;;5076594;28;19942;-71
2022/04/07 11:50:51;;;;;;;;;;;19.00;69.50;;;;;;5077228;28;19916;-71
2022/04/07 11:53:17;;;;;;;;;;;18.90;70.40;;;;;;5077536;28;19908;-72
2022/04/07 11:55:43;;;;;;;;;;;18.70;70.00;;;;;;5077066;28;19962;-72
2022/04/07 11:58:15;;;;;;;;;;;18.50;70.80;;;;;;5077527;28;19912;-71
2022/04/07 12:00:41;;;;;;;;;;;18.30;69.90;;;;;;5057542;28;19915;-72
2022/04/07 12:03:06;;;;;;;;;;;18.10;69.90;;;;;;5076622;28;19924;-72
2022/04/07 12:05:39;;;;;;;;;;;17.80;69.90;;;;;;5076072;28;19917;-72
2022/04/07 12:08:11;;;;;;;;;;;17.80;70.80;;;;;;5077127;28;19965;-71
2022/04/07 12:10:40;;;;;;;;;;;17.80;69.50;;;;;;5059057;28;19908;-71
2022/04/07 12:13:06;;;;;;;;;;;17.80;69.90;;;;;;5076962;28;19920;-71
2022/04/07 12:15:36;;;;;;;;;;;18.00;69.20;;;;;;5077057;28;19935;-71
2022/04/07 12:18:09;;;;;;;;;;;18.30;68.00;;;;;;5076689;28;19927;-71
2022/04/07 12:20:35;;;;;;;;;;;18.60;64.90;;;;;;5075082;28;19979;-70
2022/04/07 12:23:07;;;;;;;;;;;18.80;64.80;;;;;;5075561;28;19931;-71
2022/04/07 12:25:33;;;;;;;;;;;19.10;64.70;;;;;;5074574;28;19920;-71
2022/04/07 12:28:12;;;;;;;;;;;19.30;64.80;;;;;;5075020;28;19917;-71
2022/04/07 12:30:45;;;;;;;;;;;19.30;64.00;;;;;;5075737;28;19913;-71
2022/04/07 12:33:10;;;;;;;;;;;19.10;62.90;;;;;;5071506;28;19912;-70
2022/04/07 12:35:46;;;;;;;;;;;18.80;63.10;;;;;;5076923;28;19920;-71
2022/04/07 12:38:12;;;;;;;;;;;18.60;63.30;;;;;;5076707;28;19919;-70
2022/04/07 12:40:38;;;;;;;;;;;18.70;64.80;;;;;;5075471;28;20401;-71
2022/04/07 12:43:04;;;;;;;;;;;18.70;64.70;;;;;;5077296;28;21657;-70
2022/04/07 12:45:30;;;;;;;;;;;18.70;63.40;;;;;;5076675;28;19916;-71
2022/04/07 12:48:06;;;;;;;;;;;18.80;63.60;;;;;;5072210;28;20402;-70
2022/04/07 12:50:35;;;;;;;;;;;18.80;63.10;;;;;;5074251;28;19913;-71
2022/04/07 12:53:01;;;;;;;;;;;18.80;62.40;;;;;;5076764;28;19908;-71
2022/04/07 12:55:38;;;;;;;;;;;18.70;62.20;;;;;;5076813;28;19995;-71
2022/04/07 12:58:04;;;;;;;;;;;18.60;62.80;;;;;;5052994;28;19919;-70
2022/04/07 13:00:33;;;;;;;;;;;18.50;63.10;;;;;;5055332;28;19935;-71
2022/04/07 13:03:01;;;;;;;;;;;18.30;62.50;;;;;;5071661;28;19920;-70
2022/04/07 13:05:35;;;;;;;;;;;18.20;63.00;;;;;;5076703;28;19915;-71
2022/04/07 13:08:02;;;;;;;;;;;18.10;63.30;;;;;;5076126;28;20306;-71
2022/04/07 13:10:28;;;;;;;;;;;18.10;62.20;;;;;;5077094;28;19919;-71
2022/04/07 13:12:54;;;;;;;;;;;18.10;63.70;;;;;;5077047;28;19958;-70
2022/04/07 13:15:20;;;;;;;;;;;18.20;63.50;;;;;;5069505;28;19909;-70
2022/04/07 13:17:46;;;;;;;;;;;18.10;63.40;;;;;;5077024;28;19912;-70
2022/04/07 13:20:12;;;;;;;;;;;18.00;64.00;;;;;;5077163;28;19927;-70
2022/04/07 13:22:38;;;;;;;;;;;17.80;61.90;;;;;;5059054;28;19909;-69
2022/04/07 13:25:05;;;;;;;;;;;17.70;63.60;;;;;;5076828;28;19923;-71
2022/04/07 13:27:31;;;;;;;;;;;17.70;64.50;;;;;;5076567;28;19995;-71
2022/04/07 13:29:57;;;;;;;;;;;17.80;65.20;;;;;;5076907;28;19958;-71
2022/04/07 13:32:24;;;;;;;;;;;17.90;65.40;;;;;;5074855;28;19939;-71
2022/04/07 13:34:50;;;;;;;;;;;17.90;65.00;;;;;;5079858;28;20003;-71
2022/04/07 13:37:15;;;;;;;;;;;17.80;64.80;;;;;;5080677;28;19908;-70
2022/04/07 13:39:41;;;;;;;;;;;17.60;64.50;;;;;;5080033;28;20325;-71
2022/04/07 13:42:07;;;;;;;;;;;17.60;66.20;;;;;;5080264;28;19908;-71
2022/04/07 13:44:33;;;;;;;;;;;17.60;66.70;;;;;;5080164;28;19951;-70
2022/04/07 13:46:59;;;;;;;;;;;17.80;65.80;;;;;;5080453;28;20295;-71
2022/04/07 13:49:25;;;;;;;;;;;18.00;65.10;;;;;;5079781;28;19928;-70
2022/04/07 13:51:51;;;;;;;;;;;18.00;62.30;;;;;;5080271;28;19956;-70
2022/04/07 13:54:17;;;;;;;;;;;18.00;62.40;;;;;;5081746;28;19999;-70
2022/04/07 13:56:43;;;;;;;;;;;17.90;61.70;;;;;;5096040;28;19940;-71
2022/04/07 13:59:08;;;;;;;;;;;17.80;62.60;;;;;;5079973;28;19956;-70
2022/04/07 14:01:34;;;;;;;;;;;17.70;61.90;;;;;;5079924;28;20394;-70
2022/04/07 14:04:00;;;;;;;;;;;17.50;61.20;;;;;;5079407;28;19912;-69
2022/04/07 14:06:25;;;;;;;;;;;17.20;61.80;;;;;;5073117;28;19908;-70
2022/04/07 14:08:51;;;;;;;;;;;17.20;63.40;;;;;;5079830;28;19909;-70
2022/04/07 14:11:17;;;;;;;;;;;17.10;64.00;;;;;;5080043;28;19908;-70
2022/04/07 14:13:43;;;;;;;;;;;17.10;64.10;;;;;;5079490;28;19923;-70